Terminal Aerodrome Forecast
Issued by NWS

Home | Current Version | Previous Version | Text Only | Print | Product List | Glossary On
Versions: 1 2 3 4 5 6 7 8 9 10 11 12 13 14 15 16
367
FTUS42 KTBW 310539
TAFPGD
TAF
KPGD 310539Z 3106/0106 VRB04KT P6SM FEW250
     FM311500 13006KT P6SM SCT025 BKN250
     FM311900 14007KT P6SM VCTS SCT030CB BKN060 BKN250
     FM010100 VRB04KT P6SM FEW050 BKN250=

USA.gov is the U.S. government's official web portal to all federal, state and local government web resources and services.